Time;durP1;ratioP1;P1;durP2;ratioP2;P2;SDS_P1;SDS_P2;PMS_P1;PMS_P2;Temp;Humidity;BMP_temperature;BMP_pressure;BME280_temperature;BME280_humidity;BME280_pressure;Samples;Min_cycle;Max_cycle;Signal;HPM_P1;HPM_P2
2023/09/18 00:00:23;;;;;;;6.03;2.88;;;;;;;18.24;100.00;99496.03;4967483;28;20060;-73
2023/09/18 00:02:48;;;;;;;6.53;3.53;;;;;;;18.26;100.00;99504.91;4978649;28;20022;-74
2023/09/18 00:05:15;;;;;;;8.70;3.70;;;;;;;18.27;100.00;99498.91;4959252;28;20067;-74
2023/09/18 00:07:42;;;;;;;9.20;4.03;;;;;;;18.30;100.00;99488.94;4983533;28;20026;-74
2023/09/18 00:10:09;;;;;;;10.73;4.07;;;;;;;18.29;100.00;99492.94;4966504;28;20034;-74
2023/09/18 00:12:35;;;;;;;10.98;4.45;;;;;;;18.31;100.00;99487.75;4970971;28;20126;-74
2023/09/18 00:15:00;;;;;;;7.20;3.40;;;;;;;18.32;100.00;99489.38;4983838;28;20043;-75
2023/09/18 00:17:26;;;;;;;6.70;3.65;;;;;;;18.34;100.00;99481.41;4987089;28;20041;-73
2023/09/18 00:19:52;;;;;;;7.60;3.85;;;;;;;18.35;100.00;99485.81;5003717;28;20432;-75
2023/09/18 00:22:17;;;;;;;8.20;3.55;;;;;;;18.37;100.00;99497.53;4986818;28;20030;-74
2023/09/18 00:24:43;;;;;;;8.20;4.43;;;;;;;18.38;100.00;99499.13;4971031;28;20033;-73
2023/09/18 00:27:10;;;;;;;11.48;3.97;;;;;;;18.42;100.00;99493.59;4970980;28;20030;-73
2023/09/18 00:29:36;;;;;;;9.05;4.03;;;;;;;18.43;100.00;99490.41;5004115;28;20120;-74
2023/09/18 00:32:01;;;;;;;12.10;4.03;;;;;;;18.46;100.00;99495.28;5003190;28;20129;-74
2023/09/18 00:34:27;;;;;;;9.95;3.58;;;;;;;18.45;100.00;99487.25;4983767;28;20565;-75
2023/09/18 00:36:52;;;;;;;6.43;3.97;;;;;;;18.49;100.00;99488.09;4985399;28;20025;-75
2023/09/18 00:39:18;;;;;;;7.78;3.97;;;;;;;18.48;100.00;99486.50;4954580;28;20034;-75
2023/09/18 00:41:43;;;;;;;8.50;4.20;;;;;;;18.47;100.00;99487.66;4984968;28;20026;-74
2023/09/18 00:44:09;;;;;;;9.07;4.35;;;;;;;18.50;100.00;99490.56;4970523;28;20026;-74
2023/09/18 00:46:34;;;;;;;9.45;4.60;;;;;;;18.48;100.00;99486.50;4986824;28;20030;-74
2023/09/18 00:49:00;;;;;;;11.95;4.25;;;;;;;18.51;100.00;99488.56;4962308;28;20037;-74
2023/09/18 00:51:25;;;;;;;9.90;4.50;;;;;;;18.49;100.00;99488.91;4968716;28;20483;-74
2023/09/18 00:53:51;;;;;;;9.25;4.35;;;;;;;18.51;100.00;99491.38;4986832;28;20029;-74
2023/09/18 00:56:16;;;;;;;6.35;4.05;;;;;;;18.53;100.00;99497.44;4986469;28;20061;-75
2023/09/18 00:58:42;;;;;;;6.85;4.30;;;;;;;18.50;100.00;99489.75;4966995;28;20029;-74
2023/09/18 01:01:08;;;;;;;10.82;4.43;;;;;;;18.54;100.00;99496.25;4985063;28;20029;-75
2023/09/18 01:03:34;;;;;;;7.57;4.10;;;;;;;18.52;100.00;99492.97;4960972;28;20022;-74
2023/09/18 01:05:59;;;;;;;8.88;4.53;;;;;;;18.54;100.00;99490.63;4971289;28;20037;-74
2023/09/18 01:08:25;;;;;;;10.82;4.63;;;;;;;18.56;100.00;99488.25;4986457;28;20508;-73
2023/09/18 01:11:03;;;;;;;8.23;4.25;;;;;;;18.54;100.00;99485.81;5002420;28;20069;-74
2023/09/18 01:13:31;;;;;;;9.82;5.70;;;;;;;18.53;100.00;99484.19;4983407;28;20483;-74
2023/09/18 01:16:00;;;;;;;7.95;4.10;;;;;;;18.53;100.00;99472.94;4970249;28;20050;-73
2023/09/18 01:18:26;;;;;;;9.60;5.00;;;;;;;18.54;100.00;99470.94;4982747;28;20022;-75
2023/09/18 01:20:51;;;;;;;6.53;4.10;;;;;;;18.54;100.00;99470.94;4981990;28;20487;-74
2023/09/18 01:23:17;;;;;;;8.88;4.50;;;;;;;18.56;100.00;99468.56;4957491;28;20030;-74
2023/09/18 01:25:42;;;;;;;8.52;4.70;;;;;;;18.58;100.00;99466.19;4982794;28;20045;-74
2023/09/18 01:28:08;;;;;;;10.60;5.50;;;;;;;18.57;100.00;99464.56;4969356;28;20510;-73
2023/09/18 01:30:34;;;;;;;9.13;5.43;;;;;;;18.56;100.00;99471.38;4950916;28;20117;-74
2023/09/18 01:33:00;;;;;;;10.15;5.40;;;;;;;18.57;100.00;99467.38;4976240;28;20519;-73
2023/09/18 01:35:29;;;;;;;10.07;5.55;;;;;;;18.53;100.00;99472.94;4966405;28;20053;-75
2023/09/18 01:37:56;;;;;;;8.50;4.70;;;;;;;18.57;100.00;99472.19;4957567;28;20113;-74
2023/09/18 01:40:22;;;;;;;6.55;4.85;;;;;;;18.56;100.00;99467.75;4966266;28;20030;-74
2023/09/18 01:42:47;;;;;;;11.95;5.40;;;;;;;18.52;100.00;99459.25;4977546;28;20040;-76
2023/09/18 01:45:13;;;;;;;14.35;6.20;;;;;;;18.54;100.00;99460.50;4969427;28;20026;-74
2023/09/18 01:47:39;;;;;;;11.80;5.15;;;;;;;18.52;100.00;99454.44;4977621;28;20025;-74
2023/09/18 01:50:07;;;;;;;12.27;5.65;;;;;;;18.53;100.00;99458.88;4953541;28;20363;-75
2023/09/18 01:52:34;;;;;;;7.70;4.38;;;;;;;18.54;100.00;99465.31;4967199;28;20022;-74
2023/09/18 01:55:00;;;;;;;10.70;5.57;;;;;;;18.56;100.00;99462.13;5002304;28;20029;-74
2023/09/18 01:57:26;;;;;;;12.68;5.25;;;;;;;18.55;100.00;99472.56;4983075;28;20037;-74
2023/09/18 01:59:51;;;;;;;13.40;5.88;;;;;;;18.52;100.00;99471.28;4969378;28;20094;-75
2023/09/18 02:02:17;;;;;;;11.48;4.95;;;;;;;18.55;100.00;99464.13;4965869;28;20385;-73
2023/09/18 02:04:42;;;;;;;11.55;6.18;;;;;;;18.54;100.00;99468.94;5007914;28;20026;-74
2023/09/18 02:07:08;;;;;;;11.05;5.30;;;;;;;18.54;100.00;99470.94;5001400;28;20049;-73
2023/09/18 02:09:34;;;;;;;7.68;4.57;;;;;;;18.54;100.00;99468.94;4985342;28;20490;-74
2023/09/18 02:11:59;;;;;;;9.27;5.45;;;;;;;18.54;100.00;99473.75;4972157;28;20061;-74
2023/09/18 02:14:25;;;;;;;10.10;5.35;;;;;;;18.54;100.00;99471.75;4981627;28;20034;-74
2023/09/18 02:16:50;;;;;;;7.07;4.70;;;;;;;18.53;100.00;99469.31;4983012;28;20050;-74
2023/09/18 02:19:20;;;;;;;8.23;4.95;;;;;;;18.53;100.00;99469.31;4981403;28;20500;-74
2023/09/18 02:21:45;;;;;;;12.82;6.68;;;;;;;18.53;100.00;99467.31;4982453;28;20036;-74
2023/09/18 02:24:11;;;;;;;8.73;5.45;;;;;;;18.54;100.00;99465.31;4984712;28;20038;-73
2023/09/18 02:26:37;;;;;;;11.15;6.32;;;;;;;18.52;100.00;99462.84;4994712;28;20026;-75
2023/09/18 02:29:05;;;;;;;8.23;4.95;;;;;;;18.54;100.00;99457.69;4986654;28;20080;-75
2023/09/18 02:31:31;;;;;;;10.38;6.07;;;;;;;18.54;100.00;99456.88;4985280;28;20034;-74
2023/09/18 02:33:56;;;;;;;8.50;4.78;;;;;;;18.56;100.00;99453.72;4977499;28;20031;-74
2023/09/18 02:36:22;;;;;;;10.20;4.97;;;;;;;18.53;100.00;99461.69;5000741;28;20084;-73
2023/09/18 02:38:47;;;;;;;7.50;5.10;;;;;;;18.52;100.00;99456.44;4984610;28;20036;-74
2023/09/18 02:41:13;;;;;;;6.75;4.47;;;;;;;18.55;100.00;99458.50;4965809;28;20031;-74
2023/09/18 02:43:38;;;;;;;9.38;5.07;;;;;;;18.57;100.00;99455.31;4981196;28;20030;-74
2023/09/18 02:46:05;;;;;;;7.80;4.75;;;;;;;18.56;100.00;99454.50;4995071;28;20100;-75
2023/09/18 02:48:31;;;;;;;10.45;4.97;;;;;;;18.56;100.00;99453.72;4992347;28;20022;-74
2023/09/18 02:50:57;;;;;;;8.80;5.05;;;;;;;18.58;100.00;99452.13;4968285;28;20052;-75
2023/09/18 02:53:23;;;;;;;8.88;5.43;;;;;;;18.56;100.00;99446.06;4977088;28;20052;-73
2023/09/18 02:55:54;;;;;;;8.68;4.90;;;;;;;18.58;100.00;99456.94;4963221;28;20029;-74
2023/09/18 02:58:20;;;;;;;6.38;5.20;;;;;;;18.59;100.00;99464.19;4964723;28;20026;-74
2023/09/18 03:00:47;;;;;;;12.88;6.25;;;;;;;18.56;100.00;99445.28;4967177;28;20038;-75
2023/09/18 03:03:12;;;;;;;8.88;5.10;;;;;;;18.56;100.00;99456.50;4980992;28;20131;-75
2023/09/18 03:05:38;;;;;;;7.28;4.63;;;;;;;18.57;100.00;99455.31;4988418;28;20156;-74
2023/09/18 03:08:04;;;;;;;8.77;4.97;;;;;;;18.52;100.00;99454.44;4984254;28;20101;-74
2023/09/18 03:10:34;;;;;;;8.27;4.82;;;;;;;18.52;100.00;99459.25;4967906;28;20076;-75
2023/09/18 03:13:00;;;;;;;7.03;4.93;;;;;;;18.53;100.00;99455.25;4980807;28;20090;-74
2023/09/18 03:15:25;;;;;;;10.05;6.00;;;;;;;18.50;100.00;99445.56;4968448;28;20396;-74
2023/09/18 03:17:51;;;;;;;7.60;4.72;;;;;;;18.48;100.00;99447.94;4966006;28;20031;-75
2023/09/18 03:20:16;;;;;;;8.15;5.82;;;;;;;18.50;100.00;99439.94;4961321;28;20109;-74
2023/09/18 03:22:42;;;;;;;10.10;5.65;;;;;;;18.51;100.00;99443.56;4961160;28;20033;-74
2023/09/18 03:25:07;;;;;;;8.77;5.10;;;;;;;18.51;100.00;99441.56;4945407;28;20031;-74
2023/09/18 03:27:33;;;;;;;7.80;5.18;;;;;;;18.49;100.00;99429.88;4958176;29;20042;-74
2023/09/18 03:29:58;;;;;;;8.88;5.75;;;;;;;18.49;100.00;99437.50;4979206;28;20026;-74
2023/09/18 03:32:24;;;;;;;7.35;5.18;;;;;;;18.50;100.00;99437.13;4977300;28;20115;-75
2023/09/18 03:34:53;;;;;;;8.50;6.15;;;;;;;18.44;100.00;99438.63;4959269;28;20484;-74
2023/09/18 03:37:18;;;;;;;7.95;5.13;;;;;;;18.46;100.00;99433.44;4941930;29;20081;-75
2023/09/18 03:39:44;;;;;;;10.75;5.85;;;;;;;18.47;100.00;99437.06;4932224;28;20395;-74
2023/09/18 03:42:09;;;;;;;11.85;5.55;;;;;;;18.43;100.00;99434.19;4943325;28;20130;-74
2023/09/18 03:44:36;;;;;;;9.18;5.40;;;;;;;18.44;100.00;99435.00;4960682;28;20030;-74
2023/09/18 03:47:03;;;;;;;7.35;5.28;;;;;;;18.42;100.00;99438.19;4980755;28;20089;-74
2023/09/18 03:49:29;;;;;;;8.35;4.50;;;;;;;18.44;100.00;99446.22;4952708;28;20082;-73
2023/09/18 03:51:54;;;;;;;7.10;5.40;;;;;;;18.43;100.00;99442.63;4961116;28;20034;-75
2023/09/18 03:54:20;;;;;;;9.75;5.30;;;;;;;18.43;100.00;99445.44;4960198;28;20370;-74
2023/09/18 03:56:46;;;;;;;6.93;4.70;;;;;;;18.41;100.00;99449.78;4942166;29;20031;-74
2023/09/18 03:59:15;;;;;;;8.30;4.85;;;;;;;18.42;100.00;99443.81;4956824;28;20031;-75
2023/09/18 04:01:40;;;;;;;8.50;5.40;;;;;;;18.41;100.00;99446.97;4977530;28;20027;-75
2023/09/18 04:04:06;;;;;;;6.60;4.75;;;;;;;18.41;100.00;99447.78;4945992;28;20038;-75
2023/09/18 04:06:40;;;;;;;7.05;4.75;;;;;;;18.38;100.00;99453.34;4960978;28;20090;-75
2023/09/18 04:09:06;;;;;;;9.10;4.97;;;;;;;18.38;100.00;99453.34;4928091;29;20039;-75
2023/09/18 04:11:32;;;;;;;9.23;5.07;;;;;;;18.41;100.00;99446.97;4941698;29;20042;-75
2023/09/18 04:14:01;;;;;;;9.85;6.05;;;;;;;18.37;100.00;99443.31;4941507;28;20063;-75
2023/09/18 04:16:27;;;;;;;7.68;4.78;;;;;;;18.36;100.00;99450.09;4925635;29;20050;-75
2023/09/18 04:18:53;;;;;;;8.02;4.80;;;;;;;18.33;100.00;99450.84;4944820;28;20031;-75
2023/09/18 04:21:19;;;;;;;7.07;4.93;;;;;;;18.33;100.00;99454.50;4928965;28;20065;-74
2023/09/18 04:23:44;;;;;;;5.80;4.70;;;;;;;18.29;100.00;99454.41;4944417;28;20054;-75
2023/09/18 04:26:13;;;;;;;7.93;5.00;;;;;;;18.31;100.00;99449.22;4960777;28;20035;-74
2023/09/18 04:28:38;;;;;;;7.50;4.60;;;;;;;18.29;100.00;99454.41;4976980;28;20057;-75
2023/09/18 04:31:04;;;;;;;7.57;4.70;;;;;;;18.30;100.00;99447.59;4928970;28;20030;-75
2023/09/18 04:33:29;;;;;;;6.03;4.68;;;;;;;18.29;100.00;99450.78;4960707;28;20031;-75
2023/09/18 04:35:54;;;;;;;8.25;4.65;;;;;;;18.30;100.00;99449.59;4935050;29;20510;-75
2023/09/18 04:38:20;;;;;;;7.65;4.70;;;;;;;18.28;100.00;99447.16;4957059;29;20038;-75
2023/09/18 04:40:45;;;;;;;9.32;5.07;;;;;;;18.27;100.00;99453.94;4935058;29;20027;-75
2023/09/18 04:43:11;;;;;;;6.60;4.90;;;;;;;18.27;100.00;99461.56;4938240;29;20479;-75
2023/09/18 04:45:37;;;;;;;6.57;4.88;;;;;;;18.28;100.00;99454.78;4951311;28;20073;-75
2023/09/18 04:48:03;;;;;;;9.77;4.70;;;;;;;18.20;100.00;99453.00;4952362;28;20027;-75
2023/09/18 04:50:29;;;;;;;7.65;4.97;;;;;;;18.22;100.00;99447.81;4941419;29;20036;-75
2023/09/18 04:52:55;;;;;;;7.25;5.40;;;;;;;18.14;100.00;99438.47;4941922;28;20113;-75
2023/09/18 04:55:21;;;;;;;8.30;5.28;;;;;;;18.13;100.00;99436.81;4960720;28;20035;-75
2023/09/18 04:57:49;;;;;;;6.55;5.28;;;;;;;18.09;100.00;99450.78;4979438;28;20399;-75
2023/09/18 05:00:14;;;;;;;7.25;4.95;;;;;;;18.02;100.00;99447.81;4964145;28;20093;-75
2023/09/18 05:02:40;;;;;;;10.43;4.95;;;;;;;18.04;100.00;99445.47;4965725;28;20106;-75
2023/09/18 05:05:08;;;;;;;6.32;4.50;;;;;;;18.00;100.00;99453.03;4943132;29;20094;-75
2023/09/18 05:07:34;;;;;;;8.15;4.70;;;;;;;18.00;100.00;99458.66;4945072;29;20027;-74
2023/09/18 05:10:00;;;;;;;7.88;4.97;;;;;;;18.00;100.00;99453.03;4960878;28;20039;-74
2023/09/18 05:12:25;;;;;;;10.57;5.90;;;;;;;17.97;100.00;99456.56;4947517;28;20037;-75
2023/09/18 05:14:51;;;;;;;7.30;4.70;;;;;;;17.93;100.00;99450.06;4969902;28;20045;-75
2023/09/18 05:17:17;;;;;;;7.85;4.95;;;;;;;17.94;100.00;99448.91;4957237;28;20045;-75
2023/09/18 05:19:43;;;;;;;7.25;5.40;;;;;;;17.92;100.00;99454.06;4954082;28;20482;-75
2023/09/18 05:22:10;;;;;;;7.03;4.75;;;;;;;17.90;100.00;99456.41;4985839;28;20076;-75
2023/09/18 05:24:36;;;;;;;5.97;4.35;;;;;;;17.89;100.00;99452.00;4986469;28;20053;-75
2023/09/18 05:27:02;;;;;;;5.97;4.90;;;;;;;17.89;100.00;99462.41;4969872;28;20030;-75
2023/09/18 05:29:28;;;;;;;6.88;4.75;;;;;;;17.89;100.00;99465.22;4975079;28;20489;-75
2023/09/18 05:31:53;;;;;;;7.68;4.43;;;;;;;17.84;100.00;99455.09;4969460;28;20061;-74
2023/09/18 05:34:19;;;;;;;8.23;4.80;;;;;;;17.84;100.00;99458.72;4966513;28;20149;-75
2023/09/18 05:36:44;;;;;;;8.82;4.70;;;;;;;17.83;100.00;99457.09;4999505;28;20080;-74
2023/09/18 05:39:12;;;;;;;8.60;4.45;;;;;;;17.82;100.00;99449.81;4985680;28;20033;-74
2023/09/18 05:41:41;;;;;;;6.63;4.75;;;;;;;17.83;100.00;99451.47;4954207;28;20030;-75
2023/09/18 05:44:07;;;;;;;5.00;4.50;;;;;;;17.78;100.00;99443.34;4969837;28;20034;-75
2023/09/18 05:46:35;;;;;;;8.32;4.80;;;;;;;17.79;100.00;99444.16;4969793;28;20526;-75
2023/09/18 05:49:02;;;;;;;7.90;4.70;;;;;;;17.78;100.00;99448.09;4961955;28;20026;-75
2023/09/18 05:51:27;;;;;;;9.20;4.88;;;;;;;17.76;100.00;99440.03;4985429;28;20478;-75
2023/09/18 05:53:53;;;;;;;6.07;4.57;;;;;;;17.75;100.00;99443.25;4982423;28;20057;-75
2023/09/18 05:56:18;;;;;;;6.60;5.07;;;;;;;17.75;100.00;99448.84;5000850;28;20052;-75
2023/09/18 05:58:44;;;;;;;7.43;4.63;;;;;;;17.70;100.00;99451.94;4985403;28;20034;-74
2023/09/18 06:01:09;;;;;;;7.05;4.47;;;;;;;17.71;100.00;99454.38;4980141;28;20057;-75
2023/09/18 06:03:35;;;;;;;5.68;4.72;;;;;;;17.68;100.00;99465.53;4991945;28;20510;-75
2023/09/18 06:06:05;;;;;;;9.10;5.28;;;;;;;17.67;100.00;99463.91;4986148;28;20034;-75
2023/09/18 06:08:31;;;;;;;6.78;4.57;;;;;;;17.65;100.00;99458.66;4981613;28;20056;-75
2023/09/18 06:10:57;;;;;;;6.72;4.53;;;;;;;17.62;100.00;99463.00;4965711;28;20109;-75
2023/09/18 06:13:24;;;;;;;8.50;5.45;;;;;;;17.62;100.00;99465.81;4959230;28;20030;-74
2023/09/18 06:15:50;;;;;;;6.47;4.63;;;;;;;17.61;100.00;99467.00;4980492;28;20439;-74
2023/09/18 06:18:16;;;;;;;8.20;4.85;;;;;;;17.61;100.00;99471.81;4973543;28;20475;-75
2023/09/18 06:20:43;;;;;;;5.55;4.93;;;;;;;17.57;100.00;99471.72;4999392;28;20041;-74
2023/09/18 06:23:09;;;;;;;7.50;5.43;;;;;;;17.59;100.00;99477.78;4953081;28;20116;-75
2023/09/18 06:25:34;;;;;;;7.47;5.07;;;;;;;17.59;100.00;99474.97;4984998;28;20040;-75
2023/09/18 06:28:02;;;;;;;7.53;5.88;;;;;;;17.61;100.00;99486.66;4985500;28;20029;-75
2023/09/18 06:30:27;;;;;;;9.15;5.97;;;;;;;17.64;100.00;99480.31;4980651;28;20038;-75
2023/09/18 06:32:53;;;;;;;9.27;6.15;;;;;;;17.68;100.00;99474.75;4961279;28;20394;-74
2023/09/18 06:35:18;;;;;;;9.25;6.30;;;;;;;17.69;100.00;99479.22;5000907;28;20026;-74
2023/09/18 06:37:44;;;;;;;10.77;6.85;;;;;;;17.73;100.00;99485.72;4984832;28;20064;-75
2023/09/18 06:40:10;;;;;;;10.13;6.07;;;;;;;17.78;100.00;99482.66;5018270;28;20080;-75
2023/09/18 06:42:36;;;;;;;9.25;6.10;;;;;;;17.82;100.00;99489.16;4971730;28;20034;-75
2023/09/18 06:45:06;;;;;;;10.90;7.18;;;;;;;17.90;100.00;99501.34;5000862;28;20034;-75
2023/09/18 06:47:32;;;;;;;9.13;6.40;;;;;;;17.96;100.00;99508.31;4977250;28;20064;-74
2023/09/18 06:49:58;;;;;;;8.23;6.00;;;;;;;18.04;100.00;99500.84;4968685;28;20374;-74
2023/09/18 06:52:25;;;;;;;9.93;6.07;;;;;;;18.12;100.00;99513.06;4984172;28;20030;-75
2023/09/18 06:54:50;;;;;;;11.60;6.97;;;;;;;18.21;100.00;99511.66;4985223;28;20109;-75
2023/09/18 06:57:16;;;;;;;10.00;7.70;;;;;;;18.33;100.00;99519.13;4984242;28;20030;-75
2023/09/18 06:59:41;;;;;;;9.73;5.53;;;;;;;18.43;100.00;99512.91;4977725;28;20392;-75
2023/09/18 07:02:07;;;;;;;8.40;5.63;;;;;;;18.57;100.00;99528.41;4953426;28;20477;-74
2023/09/18 07:04:32;;;;;;;9.95;4.97;;;;;;;18.70;100.00;99527.09;5005952;28;20033;-75
2023/09/18 07:06:58;;;;;;;7.85;5.07;;;;;;;18.83;100.00;99520.09;4967920;28;20034;-74
2023/09/18 07:09:24;;;;;;;7.25;4.78;;;;;;;18.97;100.00;99531.63;4964750;28;20042;-74
2023/09/18 07:11:50;;;;;;;7.28;5.10;;;;;;;19.09;100.00;99529.81;4962529;28;20030;-74
2023/09/18 07:14:16;;;;;;;8.50;4.55;;;;;;;19.19;100.00;99537.63;4964450;28;20049;-76
2023/09/18 07:16:41;;;;;;;7.97;4.60;;;;;;;19.29;100.00;99541.81;4958901;28;20042;-74
2023/09/18 07:19:11;;;;;;;9.75;4.50;;;;;;;19.39;100.00;99541.19;4999559;28;20153;-76
2023/09/18 07:21:37;;;;;;;6.85;3.85;;;;;;;19.47;100.00;99542.09;4948064;28;20042;-75
2023/09/18 07:24:03;;;;;;;7.00;4.10;;;;;;;19.52;100.00;99542.59;4983960;28;20475;-75
2023/09/18 07:26:29;;;;;;;5.50;4.13;;;;;;;19.58;100.00;99546.72;5000409;28;20034;-77
2023/09/18 07:28:54;;;;;;;7.43;3.88;;;;;;;19.64;100.00;99550.03;4948779;28;20026;-76
2023/09/18 07:31:20;;;;;;;6.90;4.00;;;;;;;19.69;100.00;99555.38;4992904;28;20389;-77
2023/09/18 07:33:46;;;;;;;9.23;4.63;;;;;;;19.71;100.00;99555.81;4949245;28;20037;-76
2023/09/18 07:36:12;;;;;;;6.05;4.07;;;;;;;19.77;100.00;99562.72;4976562;28;20025;-76
2023/09/18 07:38:37;;;;;;;6.90;3.80;;;;;;;19.81;100.00;99557.16;4951153;28;20068;-77
2023/09/18 07:41:03;;;;;;;7.88;3.47;;;;;;;19.84;100.00;99560.03;4994551;28;20041;-76
2023/09/18 07:43:29;;;;;;;6.85;4.30;;;;;;;19.85;100.00;99563.66;5017180;28;20030;-78
2023/09/18 07:45:54;;;;;;;6.18;3.70;;;;;;;19.89;100.00;99569.34;4951825;28;20663;-76
2023/09/18 07:48:22;;;;;;;5.55;3.65;;;;;;;19.93;100.00;99571.03;5007166;28;20026;-77
2023/09/18 07:50:49;;;;;;;5.93;3.50;;;;;;;19.95;100.00;99563.00;4980557;28;20042;-76
2023/09/18 07:53:14;;;;;;;8.07;3.30;;;;;;;19.99;100.00;99572.31;4999619;28;20372;-76
2023/09/18 07:55:40;;;;;;;5.72;3.83;;;;;;;20.02;100.00;99585.66;4951422;28;20241;-77
2023/09/18 07:58:06;;;;;;;7.95;3.55;;;;;;;20.05;100.00;99578.44;4999481;28;20037;-77
2023/09/18 08:00:33;;;;;;;6.93;3.35;;;;;;;20.09;100.00;99590.59;4951725;28;20026;-76
2023/09/18 08:03:00;;;;;;;5.95;3.58;;;;;;;20.10;100.00;99592.19;5001283;28;20425;-76
2023/09/18 08:05:30;;;;;;;6.43;3.58;;;;;;;20.12;100.00;99577.75;4967824;28;20033;-76
2023/09/18 08:07:56;;;;;;;6.28;3.13;;;;;;;20.16;100.00;99578.59;4999588;28;20185;-76
2023/09/18 08:10:22;;;;;;;5.40;3.10;;;;;;;20.18;100.00;99582.66;4965545;28;20034;-76
2023/09/18 08:12:49;;;;;;;4.88;3.42;;;;;;;20.20;100.00;99588.72;4979695;28;20031;-77
2023/09/18 08:15:15;;;;;;;6.25;3.40;;;;;;;20.22;100.00;99588.34;4978529;28;20056;-77
2023/09/18 08:17:41;;;;;;;4.45;3.13;;;;;;;20.24;100.00;99586.75;4970679;28;20458;-76
2023/09/18 08:20:12;;;;;;;6.93;3.25;;;;;;;20.28;100.00;99579.19;4999065;28;20402;-77
2023/09/18 08:22:38;;;;;;;6.57;2.90;;;;;;;20.28;100.00;99587.63;5000473;28;20109;-76
2023/09/18 08:25:05;;;;;;;6.07;2.97;;;;;;;20.33;100.00;99592.13;4981718;28;20041;-77
2023/09/18 08:27:30;;;;;;;5.13;3.15;;;;;;;20.37;100.00;99589.34;4948083;28;20034;-75
2023/09/18 08:29:56;;;;;;;4.07;2.60;;;;;;;20.42;100.00;99597.47;4967005;28;20042;-77
2023/09/18 08:32:21;;;;;;;7.55;3.38;;;;;;;20.47;100.00;99595.13;4986934;28;20033;-75
2023/09/18 08:34:47;;;;;;;3.92;2.63;;;;;;;20.54;100.00;99594.44;4970797;28;20116;-77
2023/09/18 08:37:13;;;;;;;5.03;2.90;;;;;;;20.62;100.00;99601.81;5003079;28;20030;-76
2023/09/18 08:39:38;;;;;;;6.13;2.65;;;;;;;20.73;100.00;99611.22;4954761;28;20448;-75
2023/09/18 08:42:04;;;;;;;4.95;2.95;;;;;;;20.84;100.00;99610.50;4952594;28;20474;-74
2023/09/18 08:44:30;;;;;;;4.55;2.53;;;;;;;20.94;100.00;99604.97;5017530;28;20038;-76
2023/09/18 08:46:56;;;;;;;8.07;2.78;;;;;;;21.07;100.00;99604.72;4988577;28;20733;-74
2023/09/18 08:49:25;;;;;;;5.97;2.78;;;;;;;21.21;100.00;99607.69;4989755;28;20113;-76
2023/09/18 08:51:51;;;;;;;5.10;2.80;;;;;;;21.34;100.00;99602.56;4967388;28;20113;-75
2023/09/18 08:54:16;;;;;;;7.25;2.70;;;;;;;21.45;100.00;99606.31;4981346;28;20057;-74
2023/09/18 08:56:42;;;;;;;4.40;2.35;;;;;;;21.56;100.00;99603.59;4970507;28;20033;-76
2023/09/18 08:59:07;;;;;;;4.55;2.40;;;;;;;21.68;100.00;99600.50;4957184;28;20027;-75
2023/09/18 09:01:33;;;;;;;5.30;2.30;;;;;;;21.76;100.00;99604.19;4968633;28;20394;-76
2023/09/18 09:04:00;;;;;;;6.03;2.53;;;;;;;21.86;100.00;99603.44;4954235;28;20056;-76
2023/09/18 09:06:25;;;;;;;2.88;1.75;;;;;;;21.93;100.00;99603.50;4967188;28;20497;-76
2023/09/18 09:08:51;;;;;;;4.60;2.13;;;;;;;21.99;100.00;99603.94;4969722;28;20032;-76
2023/09/18 09:11:17;;;;;;;4.97;2.28;;;;;;;22.01;100.00;99601.53;4970167;28;20492;-76
2023/09/18 09:13:42;;;;;;;3.33;2.10;;;;;;;22.06;100.00;99604.81;4953912;28;20042;-75
2023/09/18 09:16:08;;;;;;;5.53;2.25;;;;;;;22.14;100.00;99604.84;4953789;28;20044;-76
2023/09/18 09:18:34;;;;;;;5.25;2.38;;;;;;;22.21;100.00;99604.94;4969694;28;20033;-76
2023/09/18 09:21:04;;;;;;;6.97;2.42;;;;;;;22.26;100.00;99604.56;4974044;28;20497;-76
2023/09/18 09:23:52;;;;;;;5.20;2.25;;;;;;;22.33;100.00;99601.75;4984325;28;20046;-76
2023/09/18 09:26:22;;;;;;;4.47;2.08;;;;;;;22.43;100.00;99611.53;4971562;28;20085;-76
2023/09/18 09:28:48;;;;;;;4.70;2.22;;;;;;;22.50;100.00;99618.00;4981691;28;20026;-76
2023/09/18 09:31:27;;;;;;;4.13;2.15;;;;;;;22.57;100.00;99614.41;5002287;28;20030;-76
2023/09/18 09:33:53;;;;;;;3.10;1.80;;;;;;;22.59;100.00;99614.00;4986081;28;20490;-76
2023/09/18 09:36:22;;;;;;;5.68;2.00;;;;;;;22.65;100.00;99612.41;4969670;28;20061;-76
2023/09/18 09:38:47;;;;;;;4.13;2.10;;;;;;;22.66;100.00;99616.88;4968726;28;20034;-77
2023/09/18 09:41:14;;;;;;;4.68;2.00;;;;;;;22.65;100.00;99630.22;4951208;28;20118;-75
2023/09/18 09:43:41;;;;;;;5.15;2.08;;;;;;;22.71;100.00;99622.16;4985507;28;20113;-76
2023/09/18 09:46:09;;;;;;;4.88;2.17;;;;;;;22.73;100.00;99622.53;4969213;28;20025;-74
2023/09/18 09:48:35;;;;;;;4.32;2.03;;;;;;;22.74;100.00;99615.69;4977697;28;20033;-76
2023/09/18 09:51:00;;;;;;;4.40;2.03;;;;;;;22.78;100.00;99622.16;4968387;28;20030;-76
2023/09/18 09:53:47;;;;;;;5.65;1.70;;;;;;;22.84;100.00;99622.59;4969592;28;20359;-76
2023/09/18 09:56:14;;;;;;;4.78;1.83;;;;;;;22.94;100.00;99622.63;4952092;28;20032;-76
2023/09/18 09:58:43;;;;;;;6.00;1.70;;;;;;;23.04;100.00;99617.41;4969244;28;20029;-76
2023/09/18 10:01:11;;;;;;;6.00;2.03;;;;;;;23.15;100.00;99616.25;4950689;28;20100;-76
2023/09/18 10:03:38;;;;;;;3.92;1.55;;;;;;;23.27;100.00;99617.91;4970853;28;20034;-77
2023/09/18 10:06:03;;;;;;;6.97;1.85;;;;;;;23.34;100.00;99623.56;4969317;28;20037;-76
2023/09/18 10:08:32;;;;;;;5.80;2.15;;;;;;;23.46;100.00;99627.22;4969121;28;20025;-76
2023/09/18 10:11:07;;;;;;;4.43;1.85;;;;;;;23.50;100.00;99633.72;4981794;28;20031;-76
2023/09/18 10:13:36;;;;;;;5.78;2.03;;;;;;;23.52;100.00;99625.63;4951466;28;20041;-76
2023/09/18 10:16:04;;;;;;;4.00;1.70;;;;;;;23.55;100.00;99633.31;4953304;28;20047;-76
2023/09/18 10:19:09;;;;;;;6.10;1.65;;;;;;;23.54;100.00;99645.84;4949890;29;20038;-76
2023/09/18 10:22:00;;;;;;;4.65;1.75;;;;;;;23.50;100.00;99631.69;4919934;29;20484;-75
2023/09/18 10:24:26;;;;;;;5.15;2.05;;;;;;;23.43;100.00;99645.84;4960379;28;20050;-76
2023/09/18 10:27:00;;;;;;;6.43;2.28;;;;;;;23.26;100.00;99653.06;4933386;28;20036;-73
2023/09/18 10:29:26;;;;;;;11.15;2.03;;;;;;;23.07;100.00;99667.63;4937894;29;20031;-75
2023/09/18 10:31:53;;;;;;;5.57;1.80;;;;;;;22.93;100.00;99645.69;4927533;28;20517;-74
2023/09/18 10:34:18;;;;;;;8.70;2.10;;;;;;;22.70;100.00;99655.28;4952181;29;20042;-75
2023/09/18 10:36:48;;;;;;;7.57;1.98;;;;;;;22.59;100.00;99662.09;4958938;29;20036;-75
2023/09/18 10:39:19;;;;;;;4.60;2.10;;;;;;;22.46;100.00;99656.00;4930429;28;20027;-75
2023/09/18 10:41:48;;;;;;;5.25;2.10;;;;;;;22.30;100.00;99665.56;4962738;28;20191;-76
2023/09/18 10:44:14;;;;;;;6.97;2.17;;;;;;;22.18;100.00;99670.75;4962461;28;20031;-77
2023/09/18 10:46:39;;;;;;;7.05;2.45;;;;;;;22.08;100.00;99667.41;4943536;28;20031;-77
2023/09/18 10:49:05;;;;;;;6.28;2.45;;;;;;;21.98;100.00;99668.16;4969834;28;20031;-77
2023/09/18 10:51:31;;;;;;;6.40;2.28;;;;;;;21.93;100.00;99674.16;4928125;29;20106;-78
2023/09/18 10:53:57;;;;;;;7.65;2.10;;;;;;;21.90;100.00;99674.97;4959526;28;20115;-77
2023/09/18 10:56:23;;;;;;;7.15;1.85;;;;;;;21.86;100.00;99679.75;4942396;29;20035;-77
2023/09/18 10:58:59;;;;;;;4.70;2.05;;;;;;;21.81;100.00;99674.44;4935022;29;20035;-77
2023/09/18 11:01:27;;;;;;;5.10;2.15;;;;;;;21.80;100.00;99675.66;4961867;28;20073;-77
2023/09/18 11:03:52;;;;;;;4.40;1.60;;;;;;;21.78;100.00;99673.22;4945983;28;20035;-77
2023/09/18 11:06:21;;;;;;;5.07;2.30;;;;;;;21.79;100.00;99679.72;4961613;28;20034;-77
2023/09/18 11:08:48;;;;;;;4.45;1.83;;;;;;;21.76;100.00;99677.66;4946388;28;20027;-77
2023/09/18 11:11:19;;;;;;;4.70;1.60;;;;;;;21.78;100.00;99675.25;4945788;28;20038;-77
2023/09/18 11:13:45;;;;;;;3.35;1.67;;;;;;;21.79;100.00;99682.53;4929812;28;20046;-77
2023/09/18 11:16:21;;;;;;;3.83;1.50;;;;;;;21.80;100.00;99676.47;4954159;28;20484;-77
2023/09/18 11:18:53;;;;;;;4.03;1.90;;;;;;;21.83;100.00;99681.34;4941343;28;20038;-75
2023/09/18 11:21:26;;;;;;;7.13;1.90;;;;;;;21.85;100.00;99678.13;4936143;29;20031;-75